sensor_id;sensor_type;location;lat;lon;timestamp;P1;durP1;ratioP1;P2;durP2;ratioP2
12459;SDS011;6295;49.452;8.466;2023-07-31T03:13:55;5.43;;;2.70;;
12459;SDS011;6295;49.452;8.466;2023-07-31T03:17:57;3.83;;;2.23;;
12459;SDS011;6295;49.452;8.466;2023-07-31T03:21:59;3.10;;;2.30;;
12459;SDS011;6295;49.452;8.466;2023-07-31T03:26:02;4.73;;;2.60;;
12459;SDS011;6295;49.452;8.466;2023-07-31T03:30:09;4.23;;;2.50;;
12459;SDS011;6295;49.452;8.466;2023-07-31T03:34:11;3.53;;;2.20;;
12459;SDS011;6295;49.452;8.466;2023-07-31T03:38:14;5.00;;;2.23;;
12459;SDS011;6295;49.452;8.466;2023-07-31T03:42:16;3.90;;;2.67;;
12459;SDS011;6295;49.452;8.466;2023-07-31T03:46:20;2.60;;;2.10;;
12459;SDS011;6295;49.452;8.466;2023-07-31T03:50:22;3.07;;;2.50;;
12459;SDS011;6295;49.452;8.466;2023-07-31T03:54:25;3.83;;;2.60;;
12459;SDS011;6295;49.452;8.466;2023-07-31T03:58:27;3.33;;;2.70;;
12459;SDS011;6295;49.452;8.466;2023-07-31T04:02:31;3.50;;;2.20;;
12459;SDS011;6295;49.452;8.466;2023-07-31T04:06:33;3.60;;;2.13;;
12459;SDS011;6295;49.452;8.466;2023-07-31T04:10:37;5.27;;;2.60;;
12459;SDS011;6295;49.452;8.466;2023-07-31T04:14:39;2.90;;;2.60;;
12459;SDS011;6295;49.452;8.466;2023-07-31T04:18:43;3.50;;;2.33;;
12459;SDS011;6295;49.452;8.466;2023-07-31T04:22:45;4.20;;;2.60;;
12459;SDS011;6295;49.452;8.466;2023-07-31T04:26:47;4.77;;;2.70;;
12459;SDS011;6295;49.452;8.466;2023-07-31T04:30:50;4.47;;;2.70;;
12459;SDS011;6295;49.452;8.466;2023-07-31T04:34:54;4.07;;;2.90;;
12459;SDS011;6295;49.452;8.466;2023-07-31T04:38:56;3.87;;;2.57;;
12459;SDS011;6295;49.452;8.466;2023-07-31T04:42:58;3.13;;;2.60;;
12459;SDS011;6295;49.452;8.466;2023-07-31T04:47:00;3.83;;;2.40;;
12459;SDS011;6295;49.452;8.466;2023-07-31T04:51:04;3.90;;;2.57;;
12459;SDS011;6295;49.452;8.466;2023-07-31T04:55:07;3.77;;;2.40;;
12459;SDS011;6295;49.452;8.466;2023-07-31T04:59:10;3.97;;;2.50;;
12459;SDS011;6295;49.452;8.466;2023-07-31T05:03:12;5.83;;;2.80;;
12459;SDS011;6295;49.452;8.466;2023-07-31T05:07:18;3.63;;;2.47;;
12459;SDS011;6295;49.452;8.466;2023-07-31T05:11:24;3.53;;;2.43;;
12459;SDS011;6295;49.452;8.466;2023-07-31T05:15:26;3.83;;;2.57;;
12459;SDS011;6295;49.452;8.466;2023-07-31T05:19:28;3.10;;;2.50;;
12459;SDS011;6295;49.452;8.466;2023-07-31T05:23:32;4.40;;;2.53;;
12459;SDS011;6295;49.452;8.466;2023-07-31T05:27:34;4.33;;;2.60;;
12459;SDS011;6295;49.452;8.466;2023-07-31T05:31:36;4.47;;;2.73;;
12459;SDS011;6295;49.452;8.466;2023-07-31T05:35:39;4.90;;;2.63;;
12459;SDS011;6295;49.452;8.466;2023-07-31T05:39:43;5.83;;;2.70;;
12459;SDS011;6295;49.452;8.466;2023-07-31T05:43:45;5.53;;;3.00;;
12459;SDS011;6295;49.452;8.466;2023-07-31T05:47:47;3.77;;;2.43;;
12459;SDS011;6295;49.452;8.466;2023-07-31T05:51:49;3.53;;;2.33;;
12459;SDS011;6295;49.452;8.466;2023-07-31T05:55:53;4.47;;;2.53;;
12459;SDS011;6295;49.452;8.466;2023-07-31T05:59:57;4.03;;;2.63;;
12459;SDS011;6295;49.452;8.466;2023-07-31T06:04:02;3.37;;;2.50;;
12459;SDS011;6295;49.452;8.466;2023-07-31T06:08:05;5.50;;;2.93;;
12459;SDS011;6295;49.452;8.466;2023-07-31T06:12:08;3.27;;;2.70;;
12459;SDS011;6295;49.452;8.466;2023-07-31T06:16:11;4.77;;;2.70;;
12459;SDS011;6295;49.452;8.466;2023-07-31T06:20:13;5.97;;;2.83;;
12459;SDS011;6295;49.452;8.466;2023-07-31T06:24:15;2.53;;;2.33;;
12459;SDS011;6295;49.452;8.466;2023-07-31T06:28:23;4.33;;;2.80;;
12459;SDS011;6295;49.452;8.466;2023-07-31T06:32:30;5.27;;;2.80;;
12459;SDS011;6295;49.452;8.466;2023-07-31T06:36:32;4.07;;;2.90;;
12459;SDS011;6295;49.452;8.466;2023-07-31T06:40:34;5.47;;;2.80;;
12459;SDS011;6295;49.452;8.466;2023-07-31T06:44:38;5.80;;;3.00;;
12459;SDS011;6295;49.452;8.466;2023-07-31T06:48:40;3.97;;;2.80;;
12459;SDS011;6295;49.452;8.466;2023-07-31T06:52:44;4.33;;;2.70;;
12459;SDS011;6295;49.452;8.466;2023-07-31T06:56:47;4.27;;;2.60;;
12459;SDS011;6295;49.452;8.466;2023-07-31T07:00:51;5.50;;;2.50;;
12459;SDS011;6295;49.452;8.466;2023-07-31T07:04:53;2.70;;;2.50;;
12459;SDS011;6295;49.452;8.466;2023-07-31T07:08:56;4.20;;;2.93;;
12459;SDS011;6295;49.452;8.466;2023-07-31T07:12:58;3.73;;;2.60;;
12459;SDS011;6295;49.452;8.466;2023-07-31T07:17:02;3.90;;;2.93;;
12459;SDS011;6295;49.452;8.466;2023-07-31T07:21:05;4.67;;;2.80;;
12459;SDS011;6295;49.452;8.466;2023-07-31T07:25:07;4.00;;;2.40;;
12459;SDS011;6295;49.452;8.466;2023-07-31T07:29:10;3.83;;;2.87;;
12459;SDS011;6295;49.452;8.466;2023-07-31T07:33:14;3.33;;;2.40;;
12459;SDS011;6295;49.452;8.466;2023-07-31T07:37:17;3.37;;;2.70;;
12459;SDS011;6295;49.452;8.466;2023-07-31T07:41:24;4.77;;;2.70;;
12459;SDS011;6295;49.452;8.466;2023-07-31T07:45:28;4.50;;;2.60;;
12459;SDS011;6295;49.452;8.466;2023-07-31T07:49:32;5.33;;;2.43;;
12459;SDS011;6295;49.452;8.466;2023-07-31T07:53:35;4.80;;;2.73;;
12459;SDS011;6295;49.452;8.466;2023-07-31T07:57:37;3.57;;;2.70;;
12459;SDS011;6295;49.452;8.466;2023-07-31T08:01:39;5.23;;;2.90;;
12459;SDS011;6295;49.452;8.466;2023-07-31T08:05:43;4.43;;;2.83;;
12459;SDS011;6295;49.452;8.466;2023-07-31T08:09:49;4.37;;;2.70;;
12459;SDS011;6295;49.452;8.466;2023-07-31T08:14:00;4.03;;;2.70;;
12459;SDS011;6295;49.452;8.466;2023-07-31T08:18:05;4.33;;;2.90;;
12459;SDS011;6295;49.452;8.466;2023-07-31T08:22:08;3.67;;;2.43;;
12459;SDS011;6295;49.452;8.466;2023-07-31T08:26:14;3.43;;;2.80;;
12459;SDS011;6295;49.452;8.466;2023-07-31T08:30:16;4.10;;;2.70;;
12459;SDS011;6295;49.452;8.466;2023-07-31T08:34:19;4.13;;;2.67;;
12459;SDS011;6295;49.452;8.466;2023-07-31T08:38:23;4.47;;;2.70;;
12459;SDS011;6295;49.452;8.466;2023-07-31T08:42:25;6.90;;;2.93;;
12459;SDS011;6295;49.452;8.466;2023-07-31T08:46:28;4.63;;;3.07;;
12459;SDS011;6295;49.452;8.466;2023-07-31T08:50:36;3.40;;;2.80;;
12459;SDS011;6295;49.452;8.466;2023-07-31T08:54:41;4.67;;;2.90;;
12459;SDS011;6295;49.452;8.466;2023-07-31T08:58:43;4.30;;;3.07;;
12459;SDS011;6295;49.452;8.466;2023-07-31T09:02:48;5.23;;;2.70;;
12459;SDS011;6295;49.452;8.466;2023-07-31T09:06:57;5.13;;;2.90;;
12459;SDS011;6295;49.452;8.466;2023-07-31T09:11:04;5.10;;;3.00;;
12459;SDS011;6295;49.452;8.466;2023-07-31T09:15:07;5.37;;;2.93;;
12459;SDS011;6295;49.452;8.466;2023-07-31T09:19:11;4.20;;;3.17;;
12459;SDS011;6295;49.452;8.466;2023-07-31T09:23:16;4.33;;;2.97;;
12459;SDS011;6295;49.452;8.466;2023-07-31T09:27:20;4.57;;;2.90;;
12459;SDS011;6295;49.452;8.466;2023-07-31T09:31:31;8.13;;;3.17;;
12459;SDS011;6295;49.452;8.466;2023-07-31T09:35:34;5.77;;;3.20;;
12459;SDS011;6295;49.452;8.466;2023-07-31T09:39:45;5.73;;;3.17;;
12459;SDS011;6295;49.452;8.466;2023-07-31T09:43:54;6.10;;;3.03;;
12459;SDS011;6295;49.452;8.466;2023-07-31T09:47:56;5.67;;;3.00;;
12459;SDS011;6295;49.452;8.466;2023-07-31T09:51:58;5.10;;;3.20;;
12459;SDS011;6295;49.452;8.466;2023-07-31T09:56:02;5.63;;;3.23;;
12459;SDS011;6295;49.452;8.466;2023-07-31T10:00:08;5.83;;;3.17;;
12459;SDS011;6295;49.452;8.466;2023-07-31T10:04:12;5.17;;;3.40;;
12459;SDS011;6295;49.452;8.466;2023-07-31T10:08:17;5.53;;;3.57;;
12459;SDS011;6295;49.452;8.466;2023-07-31T10:12:23;8.50;;;3.50;;
12459;SDS011;6295;49.452;8.466;2023-07-31T10:16:29;5.93;;;3.23;;
12459;SDS011;6295;49.452;8.466;2023-07-31T10:20:33;5.60;;;3.27;;
12459;SDS011;6295;49.452;8.466;2023-07-31T10:24:36;5.40;;;3.40;;
12459;SDS011;6295;49.452;8.466;2023-07-31T10:28:39;7.07;;;3.60;;
12459;SDS011;6295;49.452;8.466;2023-07-31T10:32:46;5.17;;;3.67;;
12459;SDS011;6295;49.452;8.466;2023-07-31T10:36:56;5.30;;;3.67;;
12459;SDS011;6295;49.452;8.466;2023-07-31T10:41:27;5.87;;;3.57;;
12459;SDS011;6295;49.452;8.466;2023-07-31T10:45:33;6.87;;;3.83;;
12459;SDS011;6295;49.452;8.466;2023-07-31T10:49:40;6.93;;;3.43;;
12459;SDS011;6295;49.452;8.466;2023-07-31T10:53:45;6.33;;;3.60;;
12459;SDS011;6295;49.452;8.466;2023-07-31T10:57:48;4.83;;;3.50;;
12459;SDS011;6295;49.452;8.466;2023-07-31T11:01:50;5.13;;;3.63;;
12459;SDS011;6295;49.452;8.466;2023-07-31T11:05:59;5.47;;;3.67;;
12459;SDS011;6295;49.452;8.466;2023-07-31T11:10:03;6.07;;;3.73;;
12459;SDS011;6295;49.452;8.466;2023-07-31T11:14:06;9.30;;;4.07;;
12459;SDS011;6295;49.452;8.466;2023-07-31T11:18:12;5.50;;;3.50;;
12459;SDS011;6295;49.452;8.466;2023-07-31T11:22:16;4.83;;;3.40;;
12459;SDS011;6295;49.452;8.466;2023-07-31T11:26:20;5.13;;;3.50;;
12459;SDS011;6295;49.452;8.466;2023-07-31T11:30:22;5.07;;;3.30;;
12459;SDS011;6295;49.452;8.466;2023-07-31T11:34:25;5.90;;;3.60;;
12459;SDS011;6295;49.452;8.466;2023-07-31T11:38:29;5.50;;;3.37;;
12459;SDS011;6295;49.452;8.466;2023-07-31T11:42:33;6.57;;;3.77;;
12459;SDS011;6295;49.452;8.466;2023-07-31T11:46:36;4.77;;;3.30;;
12459;SDS011;6295;49.452;8.466;2023-07-31T11:50:39;5.47;;;3.43;;
12459;SDS011;6295;49.452;8.466;2023-07-31T11:54:42;5.40;;;3.33;;
12459;SDS011;6295;49.452;8.466;2023-07-31T11:58:45;5.17;;;3.30;;
12459;SDS011;6295;49.452;8.466;2023-07-31T12:02:48;5.97;;;3.90;;
12459;SDS011;6295;49.452;8.466;2023-07-31T12:06:52;4.03;;;3.10;;
12459;SDS011;6295;49.452;8.466;2023-07-31T12:11:01;7.07;;;3.50;;
12459;SDS011;6295;49.452;8.466;2023-07-31T12:15:13;4.93;;;3.37;;
12459;SDS011;6295;49.452;8.466;2023-07-31T12:19:16;5.23;;;3.30;;
12459;SDS011;6295;49.452;8.466;2023-07-31T12:23:21;5.00;;;3.03;;
12459;SDS011;6295;49.452;8.466;2023-07-31T12:27:32;6.87;;;3.60;;
12459;SDS011;6295;49.452;8.466;2023-07-31T12:31:35;4.50;;;3.17;;
12459;SDS011;6295;49.452;8.466;2023-07-31T12:35:38;5.20;;;3.37;;
12459;SDS011;6295;49.452;8.466;2023-07-31T12:39:43;4.90;;;3.20;;
12459;SDS011;6295;49.452;8.466;2023-07-31T12:43:47;5.20;;;4.00;;
12459;SDS011;6295;49.452;8.466;2023-07-31T12:47:49;5.13;;;3.30;;
12459;SDS011;6295;49.452;8.466;2023-07-31T12:51:51;4.43;;;3.30;;
12459;SDS011;6295;49.452;8.466;2023-07-31T12:55:55;7.07;;;3.80;;
12459;SDS011;6295;49.452;8.466;2023-07-31T13:00:00;3.80;;;3.20;;
12459;SDS011;6295;49.452;8.466;2023-07-31T13:04:02;5.87;;;3.33;;
12459;SDS011;6295;49.452;8.466;2023-07-31T13:08:05;3.57;;;2.73;;
12459;SDS011;6295;49.452;8.466;2023-07-31T13:12:07;4.50;;;3.27;;
12459;SDS011;6295;49.452;8.466;2023-07-31T13:16:11;4.17;;;3.27;;
12459;SDS011;6295;49.452;8.466;2023-07-31T13:20:14;4.50;;;3.00;;
12459;SDS011;6295;49.452;8.466;2023-07-31T13:24:16;4.83;;;3.20;;
12459;SDS011;6295;49.452;8.466;2023-07-31T13:28:18;4.00;;;3.20;;
12459;SDS011;6295;49.452;8.466;2023-07-31T13:32:22;5.30;;;3.43;;
12459;SDS011;6295;49.452;8.466;2023-07-31T13:36:24;4.67;;;3.20;;
12459;SDS011;6295;49.452;8.466;2023-07-31T13:40:28;6.63;;;3.60;;
12459;SDS011;6295;49.452;8.466;2023-07-31T13:44:31;5.23;;;3.40;;
12459;SDS011;6295;49.452;8.466;2023-07-31T13:48:35;5.30;;;3.23;;
12459;SDS011;6295;49.452;8.466;2023-07-31T13:52:38;4.43;;;3.60;;
12459;SDS011;6295;49.452;8.466;2023-07-31T13:56:40;7.40;;;3.50;;
12459;SDS011;6295;49.452;8.466;2023-07-31T14:00:42;6.13;;;3.33;;
12459;SDS011;6295;49.452;8.466;2023-07-31T14:04:46;5.17;;;3.43;;
12459;SDS011;6295;49.452;8.466;2023-07-31T14:08:48;6.97;;;3.60;;
12459;SDS011;6295;49.452;8.466;2023-07-31T14:12:50;5.73;;;3.30;;
12459;SDS011;6295;49.452;8.466;2023-07-31T14:16:53;4.87;;;3.27;;
12459;SDS011;6295;49.452;8.466;2023-07-31T14:20:56;3.90;;;3.30;;
12459;SDS011;6295;49.452;8.466;2023-07-31T14:24:59;5.00;;;3.20;;
12459;SDS011;6295;49.452;8.466;2023-07-31T14:29:01;5.20;;;3.63;;
12459;SDS011;6295;49.452;8.466;2023-07-31T14:33:03;3.90;;;3.33;;
12459;SDS011;6295;49.452;8.466;2023-07-31T14:37:08;4.60;;;3.70;;
12459;SDS011;6295;49.452;8.466;2023-07-31T14:41:10;4.43;;;3.57;;
12459;SDS011;6295;49.452;8.466;2023-07-31T14:45:13;7.13;;;3.80;;
12459;SDS011;6295;49.452;8.466;2023-07-31T14:49:15;6.43;;;3.60;;
12459;SDS011;6295;49.452;8.466;2023-07-31T14:53:19;5.83;;;3.57;;
12459;SDS011;6295;49.452;8.466;2023-07-31T14:57:21;4.00;;;2.97;;
12459;SDS011;6295;49.452;8.466;2023-07-31T15:01:24;4.87;;;3.33;;
12459;SDS011;6295;49.452;8.466;2023-07-31T15:05:29;5.67;;;3.20;;
12459;SDS011;6295;49.452;8.466;2023-07-31T15:09:32;5.50;;;3.50;;
12459;SDS011;6295;49.452;8.466;2023-07-31T15:13:36;4.13;;;2.90;;
12459;SDS011;6295;49.452;8.466;2023-07-31T15:17:38;3.60;;;2.83;;
12459;SDS011;6295;49.452;8.466;2023-07-31T15:21:44;3.90;;;3.20;;
12459;SDS011;6295;49.452;8.466;2023-07-31T15:25:48;4.93;;;3.10;;
12459;SDS011;6295;49.452;8.466;2023-07-31T15:29:50;5.53;;;3.27;;
12459;SDS011;6295;49.452;8.466;2023-07-31T15:33:52;4.20;;;3.37;;
12459;SDS011;6295;49.452;8.466;2023-07-31T15:37:54;4.40;;;3.07;;
12459;SDS011;6295;49.452;8.466;2023-07-31T15:41:58;6.30;;;3.27;;
12459;SDS011;6295;49.452;8.466;2023-07-31T15:46:01;5.10;;;3.20;;
12459;SDS011;6295;49.452;8.466;2023-07-31T15:50:03;3.57;;;3.23;;
12459;SDS011;6295;49.452;8.466;2023-07-31T15:54:06;3.93;;;3.00;;
12459;SDS011;6295;49.452;8.466;2023-07-31T15:58:09;4.70;;;3.13;;
12459;SDS011;6295;49.452;8.466;2023-07-31T16:02:12;4.00;;;3.30;;
12459;SDS011;6295;49.452;8.466;2023-07-31T16:06:14;3.73;;;3.30;;
12459;SDS011;6295;49.452;8.466;2023-07-31T16:10:18;3.77;;;3.40;;
12459;SDS011;6295;49.452;8.466;2023-07-31T16:14:25;3.43;;;3.13;;
12459;SDS011;6295;49.452;8.466;2023-07-31T16:18:28;4.00;;;3.30;;
12459;SDS011;6295;49.452;8.466;2023-07-31T16:22:35;3.87;;;3.27;;
12459;SDS011;6295;49.452;8.466;2023-07-31T16:26:40;6.60;;;3.50;;
12459;SDS011;6295;49.452;8.466;2023-07-31T16:30:48;3.87;;;3.47;;
12459;SDS011;6295;49.452;8.466;2023-07-31T16:34:57;6.13;;;3.47;;
12459;SDS011;6295;49.452;8.466;2023-07-31T16:39:02;4.23;;;3.60;;
12459;SDS011;6295;49.452;8.466;2023-07-31T16:43:04;4.17;;;3.57;;
12459;SDS011;6295;49.452;8.466;2023-07-31T16:47:12;4.47;;;3.87;;
12459;SDS011;6295;49.452;8.466;2023-07-31T16:51:18;6.27;;;4.30;;
12459;SDS011;6295;49.452;8.466;2023-07-31T16:55:21;5.80;;;4.20;;
12459;SDS011;6295;49.452;8.466;2023-07-31T16:59:23;5.10;;;4.10;;
12459;SDS011;6295;49.452;8.466;2023-07-31T17:03:27;7.00;;;4.13;;
12459;SDS011;6295;49.452;8.466;2023-07-31T17:07:29;5.13;;;3.70;;
12459;SDS011;6295;49.452;8.466;2023-07-31T17:11:31;5.03;;;4.10;;
12459;SDS011;6295;49.452;8.466;2023-07-31T17:15:34;6.37;;;4.67;;
12459;SDS011;6295;49.452;8.466;2023-07-31T17:19:37;6.97;;;4.87;;
12459;SDS011;6295;49.452;8.466;2023-07-31T17:23:40;5.40;;;4.40;;
12459;SDS011;6295;49.452;8.466;2023-07-31T17:27:42;4.70;;;4.10;;
12459;SDS011;6295;49.452;8.466;2023-07-31T17:31:44;6.33;;;4.23;;
12459;SDS011;6295;49.452;8.466;2023-07-31T17:35:48;6.70;;;4.20;;
12459;SDS011;6295;49.452;8.466;2023-07-31T17:39:50;4.67;;;3.87;;
12459;SDS011;6295;49.452;8.466;2023-07-31T17:43:53;5.57;;;4.10;;
12459;SDS011;6295;49.452;8.466;2023-07-31T17:47:58;4.90;;;4.40;;
12459;SDS011;6295;49.452;8.466;2023-07-31T17:52:05;5.07;;;4.30;;
12459;SDS011;6295;49.452;8.466;2023-07-31T17:56:10;5.17;;;4.40;;
12459;SDS011;6295;49.452;8.466;2023-07-31T18:00:15;4.87;;;4.17;;
12459;SDS011;6295;49.452;8.466;2023-07-31T18:04:21;6.33;;;4.20;;
12459;SDS011;6295;49.452;8.466;2023-07-31T18:08:25;5.67;;;4.40;;
12459;SDS011;6295;49.452;8.466;2023-07-31T18:12:27;7.73;;;4.53;;
12459;SDS011;6295;49.452;8.466;2023-07-31T18:16:29;7.60;;;4.70;;
12459;SDS011;6295;49.452;8.466;2023-07-31T18:20:31;5.87;;;4.10;;
12459;SDS011;6295;49.452;8.466;2023-07-31T18:24:38;5.23;;;4.20;;
12459;SDS011;6295;49.452;8.466;2023-07-31T18:28:40;5.17;;;4.67;;
12459;SDS011;6295;49.452;8.466;2023-07-31T18:32:43;5.20;;;4.17;;
12459;SDS011;6295;49.452;8.466;2023-07-31T18:36:45;5.93;;;4.30;;
12459;SDS011;6295;49.452;8.466;2023-07-31T18:40:48;5.00;;;4.20;;
12459;SDS011;6295;49.452;8.466;2023-07-31T18:44:50;5.60;;;4.77;;
12459;SDS011;6295;49.452;8.466;2023-07-31T18:48:53;5.57;;;4.20;;
12459;SDS011;6295;49.452;8.466;2023-07-31T18:52:56;5.87;;;4.27;;
